createdAt,value
2024-01-09T00:02:11.157Z,2.85
2024-01-09T00:07:11.104Z,2.85
2024-01-09T00:22:11.137Z,2.85
2024-01-09T00:32:11.206Z,2.85
2024-01-09T00:47:11.237Z,2.85
2024-01-09T00:52:11.144Z,2.85
2024-01-09T01:02:11.158Z,2.85
2024-01-09T01:12:11.126Z,2.85
2024-01-09T01:32:11.162Z,2.85
2024-01-09T01:37:11.111Z,2.85
2024-01-09T01:42:11.132Z,2.85
2024-01-09T01:57:11.137Z,2.848
2024-01-09T02:17:11.161Z,2.85
2024-01-09T02:22:11.144Z,2.846
2024-01-09T02:27:11.210Z,2.85
2024-01-09T02:32:11.178Z,2.85
2024-01-09T02:37:11.165Z,2.848
2024-01-09T02:42:11.170Z,2.85
2024-01-09T02:47:11.169Z,2.85
2024-01-09T02:52:11.172Z,2.848
2024-01-09T02:57:11.151Z,2.846
2024-01-09T03:02:11.174Z,2.85
2024-01-09T03:07:11.302Z,2.848
2024-01-09T03:12:11.204Z,2.846
2024-01-09T03:17:11.199Z,2.846
2024-01-09T03:22:11.170Z,2.85
2024-01-09T03:27:11.190Z,2.848
2024-01-09T03:32:11.226Z,2.848
2024-01-09T03:37:11.190Z,2.846
2024-01-09T03:42:11.202Z,2.848
2024-01-09T03:47:11.186Z,2.848
2024-01-09T03:52:11.182Z,2.846
2024-01-09T03:57:11.211Z,2.848
2024-01-09T04:02:11.182Z,2.846
2024-01-09T04:07:11.183Z,2.848
2024-01-09T04:12:11.182Z,2.848
2024-01-09T04:17:11.296Z,2.848
2024-01-09T04:22:11.167Z,2.848
2024-01-09T04:27:11.174Z,2.846
2024-01-09T04:32:11.237Z,2.846
2024-01-09T04:37:11.200Z,2.848
2024-01-09T04:42:11.246Z,2.848
2024-01-09T04:47:11.247Z,2.846
2024-01-09T04:52:11.185Z,2.846
2024-01-09T04:57:11.204Z,2.846
2024-01-09T05:02:11.305Z,2.846
2024-01-09T05:07:11.223Z,2.846
2024-01-09T05:12:11.226Z,2.845
2024-01-09T05:17:11.246Z,2.846
2024-01-09T05:22:11.199Z,2.846
2024-01-09T05:27:11.204Z,2.846
2024-01-09T05:32:11.262Z,2.846
2024-01-09T05:37:11.194Z,2.846
2024-01-09T05:42:11.212Z,2.846
2024-01-09T05:47:11.283Z,2.846
2024-01-09T05:52:11.231Z,2.846
2024-01-09T05:57:11.234Z,2.846
2024-01-09T06:02:11.232Z,2.846
2024-01-09T06:12:11.531Z,2.846
2024-01-09T06:32:11.253Z,2.846
2024-01-09T06:37:11.220Z,2.846
2024-01-09T06:57:11.239Z,2.843
2024-01-09T07:17:11.326Z,2.843
2024-01-09T07:22:11.265Z,2.843
2024-01-09T07:32:11.315Z,2.843
2024-01-09T07:37:11.244Z,2.843
2024-01-09T07:42:11.254Z,2.845
2024-01-09T07:52:11.282Z,2.843
2024-01-09T07:57:18.404Z,2.843
2024-01-09T08:02:11.300Z,2.845
2024-01-09T08:07:11.341Z,2.845
2024-01-09T08:17:11.277Z,2.845
2024-01-09T08:22:11.266Z,2.843
2024-01-09T08:27:11.281Z,2.845
2024-01-09T08:32:11.274Z,2.845
2024-01-09T08:42:11.303Z,2.846
2024-01-09T08:47:11.280Z,2.843
2024-01-09T08:57:11.302Z,2.845
2024-01-09T09:02:11.297Z,2.845
2024-01-09T09:07:11.357Z,2.846
2024-01-09T09:12:11.328Z,2.843
2024-01-09T09:17:11.318Z,2.843
2024-01-09T09:22:11.342Z,2.846
2024-01-09T09:27:11.388Z,2.845
2024-01-09T09:32:11.348Z,2.846
2024-01-09T09:37:11.298Z,2.846
2024-01-09T09:42:11.366Z,2.845
2024-01-09T09:47:11.337Z,2.846
2024-01-09T09:52:11.325Z,2.846
2024-01-09T09:57:11.343Z,2.846
2024-01-09T10:02:11.333Z,2.845
2024-01-09T10:07:11.349Z,2.846
2024-01-09T10:12:11.336Z,2.846
2024-01-09T10:17:11.347Z,2.846
2024-01-09T10:22:11.320Z,2.846
2024-01-09T10:27:11.387Z,2.846
2024-01-09T10:32:11.336Z,2.846
2024-01-09T10:37:11.344Z,2.846
2024-01-09T10:42:11.362Z,2.843
2024-01-09T10:47:11.353Z,2.846
2024-01-09T10:52:11.381Z,2.846
2024-01-09T10:57:11.373Z,2.846
2024-01-09T11:02:11.362Z,2.846
2024-01-09T11:07:11.375Z,2.846
2024-01-09T11:12:11.346Z,2.846
2024-01-09T11:17:11.344Z,2.846
2024-01-09T11:22:11.361Z,2.846
2024-01-09T11:27:11.374Z,2.846
2024-01-09T11:32:11.341Z,2.846
2024-01-09T11:37:11.353Z,2.846
2024-01-09T11:42:11.366Z,2.846
2024-01-09T11:47:11.393Z,2.846
2024-01-09T11:52:11.389Z,2.846
2024-01-09T11:57:11.554Z,2.846
2024-01-09T12:02:11.365Z,2.846
2024-01-09T12:07:11.446Z,2.846
2024-01-09T12:12:11.400Z,2.846
2024-01-09T12:17:11.377Z,2.846
2024-01-09T12:22:11.366Z,2.846
2024-01-09T12:27:11.361Z,2.846
2024-01-09T12:32:11.383Z,2.846
2024-01-09T12:37:11.365Z,2.846
2024-01-09T12:42:11.382Z,2.846
2024-01-09T12:47:11.374Z,2.846
2024-01-09T12:52:11.375Z,2.846
2024-01-09T12:57:11.419Z,2.846
2024-01-09T13:02:11.391Z,2.846
2024-01-09T13:07:11.362Z,2.846
2024-01-09T13:12:14.542Z,2.846
2024-01-09T13:17:11.396Z,2.846
2024-01-09T13:23:40.880Z,2.846
2024-01-09T13:27:11.415Z,2.846
2024-01-09T13:32:11.446Z,2.846
2024-01-09T13:37:11.369Z,2.846
2024-01-09T13:42:11.364Z,2.846
2024-01-09T13:47:11.431Z,2.846
2024-01-09T13:52:11.389Z,2.846
2024-01-09T13:57:11.410Z,2.846
2024-01-09T14:02:11.504Z,2.846
2024-01-09T14:07:11.366Z,2.846
2024-01-09T14:12:11.375Z,2.846
2024-01-09T14:17:11.425Z,2.846
2024-01-09T14:22:11.379Z,2.846
2024-01-09T14:27:11.367Z,2.846
2024-01-09T14:32:11.359Z,2.846
2024-01-09T14:52:11.380Z,2.846
2024-01-09T14:57:11.360Z,2.846
2024-01-09T15:02:11.406Z,2.846
2024-01-09T15:22:11.355Z,2.846
2024-01-09T15:32:11.477Z,2.845
2024-01-09T15:37:11.389Z,2.846
2024-01-09T15:42:11.406Z,2.843
2024-01-09T15:47:11.490Z,2.845
2024-01-09T16:02:11.602Z,2.843
2024-01-09T16:12:11.386Z,2.846
2024-01-09T16:17:11.497Z,2.843
2024-01-09T16:32:11.447Z,2.843
2024-01-09T16:42:11.396Z,2.843
2024-01-09T16:47:11.472Z,2.843
2024-01-09T16:52:11.410Z,2.843
2024-01-09T17:02:11.462Z,2.843
2024-01-09T17:12:11.427Z,2.843
2024-01-09T17:17:11.421Z,2.843
2024-01-09T17:22:11.430Z,2.843
2024-01-09T17:27:11.436Z,2.843
2024-01-09T17:32:11.441Z,2.843
2024-01-09T17:37:11.462Z,2.843
2024-01-09T17:42:11.478Z,2.842
2024-01-09T17:47:11.501Z,2.843
2024-01-09T17:52:11.476Z,2.842
2024-01-09T17:57:11.441Z,2.84
2024-01-09T18:02:11.463Z,2.843
2024-01-09T18:07:11.440Z,2.843
2024-01-09T18:12:11.438Z,2.843
2024-01-09T18:17:11.464Z,2.842
2024-01-09T18:22:11.444Z,2.843
2024-01-09T18:27:11.433Z,2.842
2024-01-09T18:32:11.516Z,2.843
2024-01-09T18:37:11.450Z,2.843
2024-01-09T18:42:11.449Z,2.842
2024-01-09T18:47:11.520Z,2.842
2024-01-09T18:52:11.633Z,2.842
2024-01-09T18:57:11.495Z,2.84
2024-01-09T19:02:11.528Z,2.84
2024-01-09T19:07:11.480Z,2.84
2024-01-09T19:12:11.494Z,2.84
2024-01-09T19:17:11.607Z,2.84
2024-01-09T19:22:11.475Z,2.84
2024-01-09T19:27:11.495Z,2.842
2024-01-09T19:32:11.525Z,2.84
2024-01-09T19:37:11.464Z,2.84
2024-01-09T19:42:12.017Z,2.84
2024-01-09T19:47:11.538Z,2.84
2024-01-09T19:52:11.519Z,2.84
2024-01-09T19:57:11.521Z,2.84
2024-01-09T20:02:11.604Z,2.84
2024-01-09T20:07:11.574Z,2.838
2024-01-09T20:12:13.282Z,2.838
2024-01-09T20:17:11.538Z,2.838
2024-01-09T20:22:11.532Z,2.838
2024-01-09T20:27:11.556Z,2.837
2024-01-09T20:32:11.541Z,2.84
2024-01-09T20:37:11.534Z,2.838
2024-01-09T20:42:11.552Z,2.838
2024-01-09T20:47:11.606Z,2.835
2024-01-09T20:52:11.514Z,2.838
2024-01-09T21:02:11.592Z,2.837
2024-01-09T21:12:11.543Z,2.837
2024-01-09T21:17:11.580Z,2.837
2024-01-09T21:22:11.569Z,2.837
2024-01-09T21:27:11.566Z,2.837
2024-01-09T21:32:11.556Z,2.835
2024-01-09T21:37:11.553Z,2.837
2024-01-09T21:42:11.591Z,2.837
2024-01-09T21:57:11.561Z,2.837
2024-01-09T22:02:11.616Z,2.835
2024-01-09T22:17:11.625Z,2.837
2024-01-09T22:27:11.587Z,2.835
2024-01-09T22:32:11.638Z,2.835
2024-01-09T22:47:11.726Z,2.835
2024-01-09T22:52:11.620Z,2.835
2024-01-09T23:02:11.681Z,2.833
2024-01-09T23:07:11.654Z,2.835
2024-01-09T23:17:11.677Z,2.833
2024-01-09T23:22:11.670Z,2.833
2024-01-09T23:32:11.671Z,2.833
2024-01-09T23:37:11.647Z,2.833
2024-01-09T23:42:11.655Z,2.833
2024-01-09T23:47:11.733Z,2.835
2024-01-09T23:52:11.724Z,2.833
2024-01-09T23:57:12.713Z,2.833
